Time;durP1;ratioP1;P1;durP2;ratioP2;P2;SDS_P1;SDS_P2;PMS_P1;PMS_P2;Temp;Humidity;BMP_temperature;BMP_pressure;BME280_temperature;BME280_humidity;BME280_pressure;Samples;Min_cycle;Max_cycle;Signal;HPM_P1;HPM_P2
2022/04/21 00:02:14;;;;;;;6.50;4.00;;;;;;;10.64;50.67;101302.66;5019046;28;20353;-80
2022/04/21 00:04:39;;;;;;;6.82;3.80;;;;;;;10.61;50.83;101294.91;5025450;28;20113;-80
2022/04/21 00:07:05;;;;;;;5.72;3.53;;;;;;;10.60;50.95;101298.41;5026403;28;20025;-80
2022/04/21 00:09:30;;;;;;;5.78;3.58;;;;;;;10.59;51.00;101294.09;5025658;28;20129;-80
2022/04/21 00:11:56;;;;;;;7.00;3.55;;;;;;;10.59;51.02;101297.56;5015901;28;20022;-80
2022/04/21 00:14:21;;;;;;;5.35;3.65;;;;;;;10.58;50.73;101287.19;5020712;28;20029;-80
2022/04/21 00:16:46;;;;;;;5.63;3.55;;;;;;;10.55;51.15;101288.06;5023062;28;20033;-80
2022/04/21 00:19:12;;;;;;;6.43;3.60;;;;;;;10.51;52.48;101291.63;5024721;28;20476;-81
2022/04/21 00:24:21;;;;;;;8.02;4.13;;;;;;;10.45;51.41;101287.38;5021589;28;20438;-80
2022/04/21 00:26:46;;;;;;;5.30;3.45;;;;;;;10.43;51.84;101288.31;5021451;28;20033;-80
2022/04/21 00:29:12;;;;;;;5.32;3.92;;;;;;;10.38;52.25;101285.81;5025046;28;20038;-80
2022/04/21 00:31:37;;;;;;;7.40;3.70;;;;;;;10.35;52.12;101291.00;5024052;28;20075;-80
2022/04/21 00:34:03;;;;;;;5.32;3.85;;;;;;;10.32;52.03;101293.66;5015712;28;20034;-80
2022/04/21 00:36:28;;;;;;;5.80;4.15;;;;;;;10.30;52.03;101287.63;5015447;28;20029;-81
2022/04/21 00:38:53;;;;;;;7.00;4.03;;;;;;;10.23;52.71;101286.03;5018277;28;20424;-80
2022/04/21 00:41:19;;;;;;;7.32;4.00;;;;;;;10.20;52.31;101281.72;5025368;28;20116;-80
2022/04/21 00:43:44;;;;;;;7.55;4.53;;;;;;;10.10;52.91;101281.03;5021795;28;20066;-80
2022/04/21 00:46:21;;;;;;;6.47;4.05;;;;;;;10.08;52.26;101279.34;5019177;28;20040;-80
2022/04/21 00:48:49;;;;;;;7.85;4.07;;;;;;;9.99;53.25;101278.59;5019553;28;20037;-80
2022/04/21 00:51:14;;;;;;;5.60;3.75;;;;;;;9.96;53.98;101270.88;5023861;28;20040;-80
2022/04/21 00:53:39;;;;;;;4.85;3.63;;;;;;;9.92;53.80;101276.13;5023688;28;20120;-80
2022/04/21 00:56:06;;;;;;;6.30;4.30;;;;;;;9.84;53.38;101284.03;5022187;28;20033;-80
2022/04/21 00:58:33;;;;;;;5.25;3.88;;;;;;;9.80;53.88;101285.84;5021454;28;20030;-80
2022/04/21 01:00:58;;;;;;;5.40;4.00;;;;;;;9.74;54.49;101287.69;5017771;28;20049;-80
2022/04/21 01:03:25;;;;;;;6.00;3.75;;;;;;;9.70;54.54;101281.69;5025050;28;20087;-80
2022/04/21 01:05:51;;;;;;;7.28;3.83;;;;;;;9.67;55.01;101281.72;5023029;28;20032;-80
2022/04/21 01:08:16;;;;;;;6.90;4.10;;;;;;;9.63;54.38;101286.09;5024919;28;20534;-80
2022/04/21 01:10:42;;;;;;;5.97;4.25;;;;;;;9.60;54.99;101282.66;5019735;28;20768;-80
2022/04/21 01:13:09;;;;;;;6.07;3.95;;;;;;;9.57;55.15;101287.03;5012749;28;20025;-80
2022/04/21 01:15:35;;;;;;;6.93;4.30;;;;;;;9.57;54.85;101287.03;5025318;28;20515;-80
2022/04/21 01:18:01;;;;;;;8.10;4.35;;;;;;;9.55;55.34;101282.75;5025849;28;20472;-80
2022/04/21 01:20:26;;;;;;;6.88;4.20;;;;;;;9.54;56.01;101281.91;5022658;28;20065;-80
2022/04/21 01:22:52;;;;;;;6.18;4.20;;;;;;;9.51;55.20;101289.72;5023324;28;20482;-80
2022/04/21 01:25:20;;;;;;;5.82;4.18;;;;;;;9.48;55.10;101276.78;5018604;28;20480;-80
2022/04/21 01:27:47;;;;;;;7.47;4.45;;;;;;;9.46;55.52;101281.13;5003154;28;20040;-80
2022/04/21 01:30:13;;;;;;;9.00;4.20;;;;;;;9.47;55.68;101275.06;5018330;28;20460;-80
2022/04/21 01:32:44;;;;;;;8.18;3.92;;;;;;;9.43;55.71;101268.19;5019280;28;20399;-80
2022/04/21 01:35:10;;;;;;;7.28;4.20;;;;;;;9.39;56.18;101261.34;5005526;28;20113;-80
2022/04/21 01:43:05;;;;;;;5.63;3.83;;;;;;;9.35;55.95;101268.31;5023731;28;20665;-80
2022/04/21 01:45:30;;;;;;;7.40;4.18;;;;;;;9.33;55.52;101264.84;5022709;28;20060;-80
2022/04/21 01:47:56;;;;;;;4.97;3.50;;;;;;;9.29;56.29;101263.22;5004980;28;20029;-80
2022/04/21 01:50:25;;;;;;;6.45;4.00;;;;;;;9.24;56.05;101263.25;5018818;28;20030;-80
2022/04/21 01:52:51;;;;;;;6.30;3.65;;;;;;;9.21;55.73;101265.03;5010061;28;20033;-80
2022/04/21 01:55:16;;;;;;;5.53;3.90;;;;;;;9.18;55.79;101252.97;5024619;28;20049;-80
2022/04/21 01:57:42;;;;;;;8.98;4.38;;;;;;;9.16;55.48;101259.91;5014901;28;20061;-80
2022/04/21 02:00:08;;;;;;;6.30;3.80;;;;;;;9.14;55.85;101261.66;5010974;28;20116;-80
2022/04/21 02:02:33;;;;;;;5.88;3.38;;;;;;;9.10;56.39;101259.97;5012477;28;20034;-80
2022/04/21 02:05:02;;;;;;;5.38;3.80;;;;;;;9.05;55.80;101261.78;5008531;28;20223;-80
2022/04/21 02:07:27;;;;;;;5.22;3.60;;;;;;;9.02;57.00;101262.66;5020093;28;20112;-80
2022/04/21 02:09:54;;;;;;;8.57;4.00;;;;;;;8.99;56.55;101261.84;5018681;28;20134;-80
2022/04/21 02:12:21;;;;;;;11.30;3.80;;;;;;;8.99;55.97;101261.84;5017426;28;20017;-80
2022/04/21 02:14:46;;;;;;;5.95;3.65;;;;;;;8.94;57.47;101261.94;5014935;28;20488;-80
2022/04/21 02:17:12;;;;;;;6.03;3.67;;;;;;;8.92;56.45;101268.88;5017856;28;20045;-80
2022/04/21 02:19:37;;;;;;;6.43;3.72;;;;;;;8.90;56.42;101265.44;5017011;28;20049;-80
2022/04/21 02:22:02;;;;;;;6.05;3.40;;;;;;;8.88;55.86;101259.41;5020410;28;20037;-80
2022/04/21 02:24:27;;;;;;;5.78;3.47;;;;;;;8.83;56.98;101267.25;5022202;28;20107;-80
2022/04/21 02:26:53;;;;;;;6.05;3.80;;;;;;;8.80;56.62;101272.47;5018207;28;20033;-80
2022/04/21 02:29:18;;;;;;;6.00;3.55;;;;;;;8.77;56.97;101262.97;5017297;28;20498;-80
2022/04/21 02:31:43;;;;;;;6.93;3.92;;;;;;;8.77;56.88;101269.88;5016504;28;20030;-79
2022/04/21 02:34:09;;;;;;;5.65;3.80;;;;;;;8.73;56.82;101266.47;5021379;28;20037;-80
2022/04/21 02:36:34;;;;;;;7.07;4.07;;;;;;;8.69;56.61;101263.94;5019616;28;20042;-80
2022/04/21 02:38:59;;;;;;;5.63;3.75;;;;;;;8.61;56.42;101264.88;5016986;28;20104;-80
2022/04/21 02:41:26;;;;;;;6.75;4.20;;;;;;;8.55;57.35;101264.09;5015929;28;20117;-80
2022/04/21 02:43:51;;;;;;;6.05;4.18;;;;;;;8.51;56.86;101260.66;5011409;28;20165;-79
2022/04/21 02:46:17;;;;;;;9.95;4.43;;;;;;;8.47;57.66;101257.19;5021529;28;20057;-80
2022/04/21 02:48:42;;;;;;;5.68;4.10;;;;;;;8.46;57.70;101259.81;5022280;28;20393;-80
2022/04/21 02:51:09;;;;;;;7.03;4.13;;;;;;;8.40;58.49;101265.06;5017662;28;20029;-80
2022/04/21 02:59:02;;;;;;;6.45;4.00;;;;;;;8.33;57.92;101261.66;5015864;28;20060;-80
2022/04/21 03:01:27;;;;;;;9.05;4.40;;;;;;;8.33;57.73;101265.13;5020710;28;21827;-80
2022/04/21 03:03:54;;;;;;;6.85;4.25;;;;;;;8.28;58.39;101261.72;5018368;28;20321;-80
2022/04/21 03:06:20;;;;;;;7.93;5.15;;;;;;;8.26;58.93;101263.47;5026406;28;20120;-80
2022/04/21 03:08:45;;;;;;;5.88;4.22;;;;;;;8.26;58.88;101266.06;5020695;28;20492;-80
2022/04/21 03:11:10;;;;;;;6.50;4.20;;;;;;;8.24;59.08;101264.34;5019105;28;20030;-80
2022/04/21 03:13:36;;;;;;;7.78;4.30;;;;;;;8.20;59.11;101255.72;5028594;28;20476;-80
2022/04/21 03:16:01;;;;;;;6.68;4.43;;;;;;;8.20;59.14;101258.31;5027412;28;20053;-80
2022/04/21 03:18:26;;;;;;;8.00;4.50;;;;;;;8.20;59.02;101255.72;5024969;28;20039;-80
2022/04/21 03:26:19;;;;;;;6.18;4.20;;;;;;;8.12;58.73;101254.97;5020433;28;20045;-80
2022/04/21 03:28:45;;;;;;;6.72;4.40;;;;;;;8.05;59.56;101255.00;5018986;28;20029;-80
2022/04/21 03:31:10;;;;;;;7.20;4.22;;;;;;;8.02;59.12;101257.63;5022861;28;20508;-80
2022/04/21 03:33:36;;;;;;;6.15;4.28;;;;;;;8.00;60.01;101254.19;5023028;28;20508;-80
2022/04/21 03:36:01;;;;;;;7.13;4.53;;;;;;;7.97;59.16;101254.22;5026310;28;20028;-80
2022/04/21 03:38:26;;;;;;;9.75;4.43;;;;;;;7.95;59.19;101255.09;5023905;28;20518;-80
2022/04/21 03:40:51;;;;;;;11.88;4.90;;;;;;;7.93;59.31;101262.03;5021429;28;20041;-80
2022/04/21 03:43:17;;;;;;;6.65;4.47;;;;;;;7.92;58.95;101266.34;5020298;28;20507;-80
2022/04/21 03:45:42;;;;;;;9.02;4.75;;;;;;;7.89;59.33;101258.59;5006389;28;20061;-80
2022/04/21 03:48:07;;;;;;;7.35;4.60;;;;;;;7.86;59.80;101263.78;5020018;28;20029;-79
2022/04/21 03:50:34;;;;;;;5.47;3.88;;;;;;;7.86;60.57;101262.06;5023655;28;20037;-79
2022/04/21 03:53:00;;;;;;;7.28;5.05;;;;;;;7.86;58.49;101262.06;5020990;28;20125;-79
2022/04/21 03:55:25;;;;;;;9.55;5.18;;;;;;;7.84;58.35;101265.56;5017616;28;20115;-79
2022/04/21 03:57:51;;;;;;;10.55;4.70;;;;;;;7.80;60.65;101264.69;5008410;28;20034;-79
2022/04/21 04:00:16;;;;;;;8.80;4.60;;;;;;;7.81;61.32;101271.59;5021158;28;20040;-79
2022/04/21 04:02:41;;;;;;;6.70;4.25;;;;;;;7.79;59.82;101267.31;4999951;28;20033;-79
2022/04/21 04:05:07;;;;;;;6.05;4.43;;;;;;;7.78;59.73;101270.78;5023946;28;20033;-79
2022/04/21 04:13:00;;;;;;;7.22;4.30;;;;;;;7.79;58.51;101267.31;5025009;28;20040;-79
2022/04/21 04:15:25;;;;;;;8.15;4.70;;;;;;;7.74;59.29;101269.94;5022025;28;20030;-80
2022/04/21 04:17:51;;;;;;;7.15;5.03;;;;;;;7.71;58.83;101265.63;5019747;28;20025;-79
2022/04/21 04:20:16;;;;;;;9.35;5.00;;;;;;;7.68;58.10;101270.84;5024391;28;20118;-80
2022/04/21 04:22:42;;;;;;;7.30;4.88;;;;;;;7.67;58.65;101265.66;5017940;28;20040;-79
2022/04/21 04:25:10;;;;;;;7.10;4.90;;;;;;;7.62;58.94;101273.47;5023913;28;20021;-80
2022/04/21 04:27:36;;;;;;;10.40;5.03;;;;;;;7.57;59.26;101270.03;5019887;28;20033;-80
2022/04/21 04:30:07;;;;;;;8.65;4.95;;;;;;;7.53;59.24;101268.34;5023612;28;20028;-80
2022/04/21 04:32:33;;;;;;;6.93;5.00;;;;;;;7.49;59.60;101266.66;5018416;28;20029;-79
2022/04/21 04:34:58;;;;;;;6.68;4.43;;;;;;;7.41;60.58;101257.19;5024063;28;20365;-80
2022/04/21 04:37:23;;;;;;;6.60;4.75;;;;;;;7.38;61.23;101262.38;5007493;28;20029;-79
2022/04/21 04:39:49;;;;;;;8.50;4.80;;;;;;;7.36;61.68;101265.84;5022925;28;20656;-79
2022/04/21 04:42:16;;;;;;;7.57;4.97;;;;;;;7.34;61.58;101271.06;5024189;28;20065;-79
2022/04/21 04:44:42;;;;;;;7.38;4.82;;;;;;;7.34;62.14;101265.88;5025451;28;20037;-79
2022/04/21 04:47:08;;;;;;;10.77;5.15;;;;;;;7.34;61.65;101278.81;5018390;28;20057;-80
2022/04/21 04:49:33;;;;;;;7.70;4.82;;;;;;;7.33;62.23;101271.94;5020363;28;20104;-80
2022/04/21 04:51:58;;;;;;;6.38;4.68;;;;;;;7.31;62.27;101273.66;5019067;28;20052;-80
2022/04/21 04:54:25;;;;;;;9.95;4.60;;;;;;;7.31;61.09;101268.47;5021323;28;20043;-80
2022/04/21 04:56:50;;;;;;;8.50;4.88;;;;;;;7.31;61.06;101273.66;5024466;28;20021;-80
2022/04/21 04:59:16;;;;;;;10.65;4.75;;;;;;;7.32;60.99;101271.91;5014189;28;20675;-80
2022/04/21 05:01:43;;;;;;;12.25;4.97;;;;;;;7.31;61.70;101276.25;5021716;28;20515;-79
2022/04/21 05:04:19;;;;;;;8.93;4.72;;;;;;;7.35;60.78;101267.56;5015302;28;20034;-80
2022/04/21 05:06:47;;;;;;;7.72;4.47;;;;;;;7.35;62.03;101264.97;5018626;28;20021;-80
2022/04/21 05:09:14;;;;;;;5.72;4.20;;;;;;;7.39;62.01;101271.88;5022428;28;20100;-79
2022/04/21 05:11:41;;;;;;;5.88;4.20;;;;;;;7.44;62.36;101269.25;5026821;28;20020;-80
2022/04/21 05:14:07;;;;;;;6.25;4.60;;;;;;;7.49;61.85;101269.25;5018519;28;20018;-80
2022/04/21 05:16:36;;;;;;;6.88;4.38;;;;;;;7.52;60.65;101270.06;5022937;28;20033;-80
2022/04/21 05:19:02;;;;;;;7.95;4.68;;;;;;;7.57;61.53;101262.28;5017546;28;20490;-80
2022/04/21 05:21:29;;;;;;;8.52;4.75;;;;;;;7.59;61.38;101263.13;5022329;28;20503;-80
2022/04/21 05:23:57;;;;;;;7.45;4.90;;;;;;;7.63;60.72;101259.66;5019707;28;20166;-80
2022/04/21 05:26:23;;;;;;;6.68;4.55;;;;;;;7.67;60.33;101261.34;5020154;28;20053;-80
2022/04/21 05:28:49;;;;;;;7.72;4.57;;;;;;;7.70;60.48;101261.31;5023278;28;20499;-79
2022/04/21 05:31:15;;;;;;;8.10;4.78;;;;;;;7.78;60.40;101268.19;5020008;28;20084;-79
2022/04/21 05:33:41;;;;;;;6.75;4.35;;;;;;;7.82;59.79;101252.59;5003492;28;20056;-80
2022/04/21 05:36:06;;;;;;;7.10;4.30;;;;;;;7.89;60.30;101266.34;5025210;28;20371;-80
2022/04/21 05:38:32;;;;;;;7.28;4.90;;;;;;;7.98;60.19;101262.84;4995742;28;20425;-80
2022/04/21 05:40:58;;;;;;;5.63;4.30;;;;;;;8.04;60.88;101266.22;5018269;28;20039;-79
2022/04/21 05:43:40;;;;;;;7.72;4.53;;;;;;;8.11;59.87;101266.19;5020155;28;20080;-80
2022/04/21 05:46:06;;;;;;;5.88;4.32;;;;;;;8.17;61.30;101268.75;5021055;28;20029;-80
2022/04/21 05:48:32;;;;;;;8.13;4.78;;;;;;;8.24;60.53;101266.94;5021550;28;20060;-80
2022/04/21 05:50:58;;;;;;;8.13;4.85;;;;;;;8.30;60.38;101266.88;5021887;28;20476;-80
2022/04/21 05:53:26;;;;;;;8.32;4.80;;;;;;;8.35;59.56;101271.16;5022332;28;20054;-80
2022/04/21 05:55:53;;;;;;;6.68;4.45;;;;;;;8.44;60.21;101269.34;4998247;28;20058;-80
2022/04/21 05:58:20;;;;;;;6.40;4.43;;;;;;;8.53;60.53;101271.88;5000283;28;20396;-80
2022/04/21 06:00:45;;;;;;;8.05;4.80;;;;;;;8.59;60.31;101264.03;4996082;28;20084;-80
2022/04/21 06:03:11;;;;;;;11.00;4.85;;;;;;;8.66;59.81;101262.22;5000283;28;20437;-80
2022/04/21 06:05:37;;;;;;;10.88;4.93;;;;;;;8.73;59.05;101255.22;4999366;28;20028;-80
2022/04/21 06:08:02;;;;;;;11.35;5.10;;;;;;;8.80;59.49;101259.47;4999946;28;20104;-80
2022/04/21 06:10:27;;;;;;;10.63;5.20;;;;;;;8.87;60.28;101257.66;5004116;28;20036;-80
2022/04/21 06:12:53;;;;;;;10.70;5.18;;;;;;;8.93;58.43;101263.66;5005388;28;20025;-80
2022/04/21 06:15:18;;;;;;;10.15;5.50;;;;;;;9.01;59.89;101260.09;5003186;28;20030;-80
2022/04/21 06:17:45;;;;;;;8.88;5.50;;;;;;;9.07;60.76;101267.81;4988340;28;20056;-78
2022/04/21 06:20:11;;;;;;;8.25;4.93;;;;;;;9.13;59.05;101259.94;4987466;28;20022;-80
2022/04/21 06:22:36;;;;;;;8.38;5.20;;;;;;;9.22;58.88;101256.38;5003862;28;20457;-80
2022/04/21 06:25:02;;;;;;;7.93;5.45;;;;;;;9.32;60.25;101259.69;5001587;28;20058;-80
2022/04/21 06:27:27;;;;;;;9.18;5.50;;;;;;;9.39;59.23;101261.34;5007429;28;20029;-79
2022/04/21 06:29:52;;;;;;;11.32;5.50;;;;;;;9.45;58.19;101255.19;5003375;28;20026;-79
2022/04/21 06:32:18;;;;;;;7.68;5.30;;;;;;;9.51;56.97;101255.97;4997130;28;20050;-79
2022/04/21 06:34:43;;;;;;;10.02;4.72;;;;;;;9.60;56.65;101251.50;4998172;28;20038;-80
2022/04/21 06:37:09;;;;;;;9.35;5.30;;;;;;;9.68;56.47;101252.25;4998223;28;20022;-80
2022/04/21 06:39:34;;;;;;;7.28;5.22;;;;;;;9.74;56.93;101246.09;5001014;28;20044;-80
2022/04/21 06:41:59;;;;;;;7.13;4.78;;;;;;;9.81;56.58;101251.19;5003051;28;20026;-80
2022/04/21 06:49:52;;;;;;;12.00;5.60;;;;;;;10.03;55.50;101243.88;4999856;28;20092;-80
2022/04/21 06:52:18;;;;;;;7.90;5.03;;;;;;;10.11;56.09;101245.50;5003655;28;20022;-80
2022/04/21 06:54:43;;;;;;;7.07;4.90;;;;;;;10.16;55.62;101238.50;5009837;28;20046;-80
2022/04/21 06:57:08;;;;;;;7.47;4.55;;;;;;;10.20;55.11;101234.09;5014630;28;20025;-80
2022/04/21 06:59:34;;;;;;;7.95;4.88;;;;;;;10.25;55.80;101243.50;5019078;28;20052;-79
2022/04/21 07:01:59;;;;;;;6.93;4.65;;;;;;;10.30;55.01;101246.03;5024108;28;20156;-80
2022/04/21 07:04:27;;;;;;;8.55;4.57;;;;;;;10.35;55.43;101244.19;5023361;28;20108;-80
2022/04/21 07:06:53;;;;;;;11.32;4.78;;;;;;;10.40;54.80;101236.34;5023046;28;20025;-80
2022/04/21 07:09:18;;;;;;;7.97;4.53;;;;;;;10.44;54.54;101238.00;5022871;28;20034;-80
2022/04/21 07:11:43;;;;;;;7.15;4.85;;;;;;;10.48;55.04;101234.47;5002888;28;20184;-80
2022/04/21 07:14:08;;;;;;;6.55;4.57;;;;;;;10.56;56.04;101236.91;5025492;28;20085;-80
2022/04/21 07:16:34;;;;;;;8.63;4.50;;;;;;;10.61;54.60;101240.28;5025164;28;20026;-80
2022/04/21 07:18:59;;;;;;;6.60;4.53;;;;;;;10.67;55.78;101255.78;5023663;28;20499;-80
2022/04/21 07:21:24;;;;;;;9.02;4.65;;;;;;;10.72;55.02;101248.75;5027477;28;20081;-80
2022/04/21 07:23:50;;;;;;;6.28;4.18;;;;;;;10.78;55.21;101248.59;5021863;28;20490;-79
2022/04/21 07:26:15;;;;;;;6.90;4.68;;;;;;;10.87;56.12;101255.38;5021873;28;20033;-80
2022/04/21 07:28:42;;;;;;;7.43;4.43;;;;;;;10.94;55.58;101250.88;5024660;28;20380;-80
2022/04/21 07:31:07;;;;;;;7.55;4.43;;;;;;;10.99;56.89;101251.66;5014819;28;20084;-80
2022/04/21 07:33:32;;;;;;;7.68;4.28;;;;;;;11.04;54.67;101261.97;5024401;28;20479;-80
2022/04/21 07:35:58;;;;;;;10.20;4.80;;;;;;;11.09;53.86;101254.94;5015650;28;20013;-80
2022/04/21 07:38:23;;;;;;;9.35;4.50;;;;;;;11.13;55.16;101255.72;5027445;28;20533;-80
2022/04/21 07:40:50;;;;;;;6.55;4.20;;;;;;;11.18;53.71;101256.47;5026227;28;20025;-80
2022/04/21 07:43:16;;;;;;;7.75;4.60;;;;;;;11.19;53.52;101252.97;5029620;28;20158;-80
2022/04/21 07:45:41;;;;;;;5.05;4.00;;;;;;;11.22;53.98;101260.75;5019562;28;20084;-80
2022/04/21 07:48:07;;;;;;;7.50;4.50;;;;;;;11.24;54.57;101264.16;5013426;28;20477;-80
2022/04/21 07:50:33;;;;;;;8.45;4.50;;;;;;;11.27;53.37;101261.50;5026045;28;20024;-80
2022/04/21 07:53:14;;;;;;;7.00;4.53;;;;;;;11.30;54.84;101261.41;5016938;28;20024;-80
2022/04/21 07:55:44;;;;;;;6.97;4.28;;;;;;;11.32;54.11;101254.41;5026594;28;20458;-80
2022/04/21 07:58:10;;;;;;;6.97;4.43;;;;;;;11.38;56.04;101264.72;5026785;28;20365;-80
2022/04/21 08:00:38;;;;;;;5.65;4.35;;;;;;;11.44;54.91;101255.06;5023787;28;20506;-80
2022/04/21 08:03:04;;;;;;;6.35;4.20;;;;;;;11.50;54.16;101249.69;5029385;28;20026;-80
2022/04/21 08:05:29;;;;;;;7.28;4.20;;;;;;;11.56;54.00;101249.56;5023379;28;20117;-80
2022/04/21 08:07:54;;;;;;;5.65;3.97;;;;;;;11.60;54.21;101251.22;5025074;28;20490;-80
2022/04/21 08:10:20;;;;;;;6.30;4.28;;;;;;;11.64;54.39;101263.25;5029117;28;20033;-80
2022/04/21 08:12:48;;;;;;;7.40;4.00;;;;;;;11.66;54.90;101253.66;5026185;28;20493;-80
2022/04/21 08:15:26;;;;;;;6.57;4.10;;;;;;;11.67;53.83;101255.38;5024686;28;20047;-80
2022/04/21 08:18:10;;;;;;;6.63;4.13;;;;;;;11.72;54.08;101260.47;5029001;28;20392;-80
2022/04/21 08:20:35;;;;;;;5.30;3.78;;;;;;;11.77;53.38;101239.53;5012691;28;20103;-80
2022/04/21 08:23:02;;;;;;;8.52;3.95;;;;;;;11.82;54.90;101248.06;5027998;28;20499;-80
2022/04/21 08:33:39;;;;;;;6.43;4.15;;;;;;;12.12;54.44;101250.84;5021285;28;20044;-80
2022/04/21 08:36:05;;;;;;;7.85;4.30;;;;;;;12.19;54.72;101252.38;5030261;28;20159;-80
2022/04/21 08:38:31;;;;;;;6.88;4.75;;;;;;;12.23;53.67;101253.16;5023592;28;20473;-80
2022/04/21 08:41:03;;;;;;;5.95;4.10;;;;;;;12.27;53.51;101249.59;5026095;28;20037;-80
2022/04/21 08:43:28;;;;;;;;;;;;;;;12.32;53.35;101255.53;5014328;28;20185;-80
2022/04/21 08:45:55;;;;;;;6.72;4.20;;;;;;;12.32;52.66;101249.44;5018849;28;20460;-80
2022/04/21 08:48:22;;;;;;;4.95;3.60;;;;;;;12.33;53.25;101246.81;5025217;28;20025;-80
2022/04/21 08:50:48;;;;;;;7.68;3.83;;;;;;;12.38;53.70;101241.47;5017668;28;20060;-80
2022/04/21 08:53:15;;;;;;;7.10;4.40;;;;;;;12.40;53.38;101244.91;5025222;28;20460;-80
2022/04/21 08:55:42;;;;;;;7.03;3.80;;;;;;;12.45;52.22;101243.03;5012838;28;20094;-80
2022/04/21 08:58:08;;;;;;;5.63;3.70;;;;;;;12.45;51.00;101238.66;4993577;28;20132;-80
2022/04/21 09:00:33;;;;;;;5.75;4.00;;;;;;;12.49;51.19;101241.19;4999477;28;20206;-79
2022/04/21 09:02:59;;;;;;;6.55;3.75;;;;;;;12.53;52.63;101237.59;4987146;28;20029;-80
2022/04/21 09:05:29;;;;;;;6.00;3.97;;;;;;;12.58;50.89;101230.47;5003801;28;20473;-79
2022/04/21 09:07:54;;;;;;;8.23;4.07;;;;;;;12.62;52.59;101239.09;5004664;28;20108;-79
2022/04/21 09:10:20;;;;;;;6.80;4.40;;;;;;;12.67;52.40;101239.81;4996665;28;20109;-79
2022/04/21 09:12:52;;;;;;;6.50;3.45;;;;;;;12.72;50.78;101238.78;5008467;28;20405;-80
2022/04/21 09:15:19;;;;;;;5.65;3.63;;;;;;;12.78;50.02;101229.06;4992168;28;20087;-79
2022/04/21 09:17:51;;;;;;;6.47;3.80;;;;;;;12.80;50.04;101235.97;5008711;28;20742;-80
2022/04/21 09:20:19;;;;;;;7.50;3.75;;;;;;;12.82;49.10;101235.91;5008947;28;20029;-80
2022/04/21 09:22:54;;;;;;;5.40;3.60;;;;;;;12.83;49.17;101233.25;5007498;28;20085;-80
2022/04/21 09:25:31;;;;;;;5.00;2.90;;;;;;;12.86;47.30;101227.94;5011478;28;20037;-80
2022/04/21 09:27:57;;;;;;;6.75;3.15;;;;;;;12.88;45.54;101231.38;5007763;28;20034;-80
2022/04/21 09:30:23;;;;;;;4.72;2.90;;;;;;;12.92;45.64;101226.06;5001388;28;20376;-81
2022/04/21 09:32:56;;;;;;;4.45;2.55;;;;;;;12.96;46.21;101232.91;5004080;28;20104;-79
2022/04/21 09:35:26;;;;;;;3.70;2.28;;;;;;;12.96;44.70;101230.31;5002991;28;20030;-79
2022/04/21 09:37:57;;;;;;;4.57;2.40;;;;;;;13.00;44.83;101221.44;5002187;28;20088;-80
2022/04/21 09:40:29;;;;;;;5.20;2.10;;;;;;;13.04;43.91;101217.84;5004397;28;20037;-80
2022/04/21 09:43:03;;;;;;;4.20;2.17;;;;;;;13.07;43.27;101209.94;5005418;28;20522;-80
2022/04/21 09:48:21;;;;;;;;;;;;;;;13.18;45.24;101212.22;5001449;28;20032;-79
2022/04/21 09:50:51;;;;;;;;;;;;;;;13.25;45.84;101210.28;5003852;28;20335;-80
2022/04/21 09:53:19;;;;;;;;;;;;;;;13.32;45.71;101209.19;4989746;28;19972;-79
2022/04/21 09:55:44;;;;;;;;;;;;;;;13.39;45.18;101209.84;5021405;28;19918;-79
2022/04/21 09:58:10;;;;;;;;;;;;;;;13.43;44.98;101201.88;5002639;28;19935;-80
2022/04/21 10:00:36;;;;;;;;;;;;;;;13.49;45.58;101195.59;5008023;28;19914;-79
2022/04/21 10:03:02;;;;;;;;;;;;;;;13.55;44.90;101205.00;5010081;28;20012;-79
2022/04/21 10:05:31;;;;;;;;;;;;;;;13.57;43.81;101197.97;5010963;28;19965;-80
2022/04/21 10:07:59;;;;;;;;;;;;;;;13.60;44.26;101195.25;5006878;28;19967;-79
2022/04/21 10:10:26;;;;;;;;;;;;;;;13.63;44.08;101192.53;5007851;28;19924;-80
2022/04/21 10:12:53;;;;;;;;;;;;;;;13.68;44.73;101189.78;5006291;28;19921;-79
2022/04/21 10:15:18;;;;;;;;;;;;;;;13.72;44.11;101192.22;5002890;28;19996;-79
2022/04/21 10:17:43;;;;;;;;;;;;;;;13.74;43.14;101174.72;5004847;28;20020;-80
2022/04/21 10:20:09;;;;;;;;;;;;;;;13.74;43.73;101187.81;5006058;28;20315;-79
2022/04/21 10:22:34;;;;;;;;;;;;;;;13.77;43.80;101189.44;5007236;28;19924;-79
2022/04/21 10:24:59;;;;;;;;;;;;;;;13.78;43.28;101181.56;5006226;28;20008;-79
2022/04/21 10:27:38;;;;;;;;;;;;;;;13.81;43.65;101176.25;5005605;28;19921;-80
2022/04/21 10:30:19;;;;;;;;;;;;;;;13.86;42.75;101172.59;5005383;28;20027;-80
2022/04/21 10:32:52;;;;;;;;;;;;;;;13.89;42.98;101177.72;5000413;28;19921;-80
2022/04/21 10:35:23;;;;;;;;;;;;;;;13.91;43.44;101168.94;5004588;28;19920;-78
2022/04/21 10:38:08;;;;;;;;;;;;;;;13.94;43.07;101168.81;5007599;28;20377;-79
2022/04/21 10:40:33;;;;;;;;;;;;;;;13.98;42.98;101172.19;5007137;28;19963;-80
2022/04/21 10:42:59;;;;;;;;;;;;;;;14.03;42.85;101162.41;5005653;28;19968;-80
2022/04/21 10:45:29;;;;;;;;;;;;;;;14.07;41.33;101161.41;5006302;28;20364;-79
2022/04/21 10:48:08;;;;;;;;;;;;;;;14.08;42.50;101157.03;5006960;28;19913;-79
2022/04/21 10:50:34;;;;;;;;;;;;;;;14.09;42.72;101154.34;5006772;28;19920;-80
2022/04/21 10:58:34;;;;;;;;;;;;;;;14.20;41.77;101155.72;5011520;28;19950;-80
2022/04/21 11:01:14;;;;;;;;;;;;;;;14.26;41.56;101155.50;5010163;28;19921;-79
2022/04/21 11:03:40;;;;;;;;;;;;;;;14.27;41.98;101146.75;5010832;28;19940;-80
2022/04/21 11:06:09;;;;;;;;;;;;;;;14.31;41.77;101139.63;5010859;28;19919;-79
2022/04/21 11:08:34;;;;;;;;;;;;;;;14.35;41.72;101139.44;5008368;28;19917;-79
2022/04/21 11:11:00;;;;;;;;;;;;;;;14.39;41.83;101130.59;5010126;28;19920;-80
2022/04/21 11:13:40;;;;;;;;;;;;;;;14.47;42.14;101142.53;5008333;28;19976;-80
2022/04/21 11:16:05;;;;;;;;;;;;;;;14.55;41.89;101136.13;5009306;28;20361;-79
2022/04/21 11:18:31;;;;;;;;;;;;;;;14.59;41.82;101130.75;5011129;28;19960;-78
2022/04/21 11:21:15;;;;;;;;;;;;;;;14.66;41.66;101133.09;5009333;28;19913;-79
2022/04/21 11:23:40;;;;;;;;;;;;;;;14.71;41.25;101133.78;5012623;28;19917;-80
2022/04/21 11:26:07;;;;;;;;;;;;;;;14.72;41.26;101127.63;5009147;28;21800;-80
2022/04/21 11:28:32;;;;;;;;;;;;;;;14.75;40.82;101118.81;5007042;28;19913;-80
2022/04/21 11:31:01;;;;;;;;;;;;;;;14.80;40.83;101121.25;5010386;28;20000;-80
2022/04/21 11:33:27;;;;;;;;;;;;;;;14.85;39.52;101116.69;5012924;28;19913;-80
2022/04/21 11:36:05;;;;;;;;;;;;;;;14.91;40.24;101105.97;5011171;28;20338;-79
2022/04/21 11:38:48;;;;;;;;;;;;;;;15.00;40.09;101099.50;5013332;28;19913;-79
2022/04/21 11:41:14;;;;;;;;;;;;;;;15.10;40.00;101099.97;5014156;28;19929;-79
2022/04/21 11:43:46;;;;;;;;;;;;;;;15.24;40.25;101091.56;5012480;28;19917;-79
2022/04/21 11:46:12;;;;;;;;;;;;;;;15.35;39.95;101088.50;5010481;28;19913;-78
2022/04/21 11:48:40;;;;;;;;;;;;;;;15.40;39.45;101091.75;5011987;28;19920;-80
2022/04/21 11:51:05;;;;;;;;;;;;;;;15.43;39.43;101096.88;5014572;28;19925;-79
2022/04/21 11:53:34;;;;;;;;;;;;;;;15.48;39.27;101080.03;5009879;28;20008;-79
2022/04/21 11:56:00;;;;;;;;;;;;;;;15.57;39.46;101086.66;5005215;28;20552;-79
2022/04/21 11:58:26;;;;;;;;;;;;;;;15.67;38.16;101094.13;5027515;28;19933;-80
2022/04/21 12:06:30;;;;;;;;;;;;;;;15.87;39.15;101083.66;5022121;28;20382;-79
2022/04/21 12:08:56;;;;;;;;;;;;;;;15.99;39.04;101091.91;5012721;28;19935;-80
2022/04/21 12:11:22;;;;;;;;;;;;;;;16.15;38.93;101084.19;5022115;28;20419;-79
2022/04/21 12:13:48;;;;;;;;;;;;;;;16.31;38.25;101076.47;5024434;28;19927;-79
2022/04/21 12:16:34;;;;;;;;;;;;;;;16.41;38.34;101075.09;5008240;28;20363;-79
2022/04/21 12:19:09;;;;;;;;;;;;;;;16.37;37.96;101069.16;5026959;28;19936;-79
2022/04/21 12:21:35;;;;;;;;;;;;;;;16.26;38.52;101066.19;5023709;28;19924;-79
2022/04/21 12:24:14;;;;;;;;;;;;;;;16.20;38.21;101075.19;5023277;28;20268;-79
2022/04/21 12:26:46;;;;;;;;;;;;;;;16.13;37.72;101081.63;5026431;28;20020;-79
2022/04/21 12:29:11;;;;;;;;;;;;;;;16.07;37.61;101074.03;5027330;28;19937;-80
2022/04/21 12:31:43;;;;;;;;;;;;;;;16.00;38.21;101070.00;5020772;28;20936;-79
2022/04/21 12:34:11;;;;;;;;;;;;;;;15.98;38.62;101067.41;5028064;28;19967;-80
2022/04/21 12:36:36;;;;;;;;;;;;;;;16.03;38.49;101069.84;5020849;28;19921;-80